Time;durP1;ratioP1;P1;durP2;ratioP2;P2;SDS_P1;SDS_P2;PMS_P1;PMS_P2;Temp;Humidity;BMP_temperature;BMP_pressure;BME280_temperature;BME280_humidity;BME280_pressure;Samples;Min_cycle;Max_cycle;Signal;HPM_P1;HPM_P2
2022/03/30 00:01:25;;;;;;;26.42;17.17;;;;;;;2.49;66.63;92983.25;5112875;28;20128;-45
2022/03/30 00:03:51;;;;;;;30.23;18.55;;;;;;;2.40;66.91;92986.34;5113198;28;20043;-45
2022/03/30 00:06:16;;;;;;;18.23;10.95;;;;;;;2.47;65.57;92980.31;5112830;28;20048;-48
2022/03/30 00:08:42;;;;;;;20.35;10.63;;;;;;;2.55;65.24;92992.16;5113120;28;20022;-46
2022/03/30 00:11:09;;;;;;;19.27;12.15;;;;;;;2.55;64.60;92989.44;5113010;28;20461;-46
2022/03/30 00:13:35;;;;;;;32.85;18.55;;;;;;;2.54;64.70;92989.91;5113001;28;20401;-46
2022/03/30 00:16:02;;;;;;;26.15;16.80;;;;;;;2.64;64.35;92989.09;5112962;28;20057;-45
2022/03/30 00:18:27;;;;;;;28.40;17.48;;;;;;;2.63;63.61;92987.63;5113009;28;20043;-45
2022/03/30 00:20:53;;;;;;;30.48;15.13;;;;;;;2.35;64.57;92975.47;5112584;28;20039;-45
2022/03/30 00:23:18;;;;;;;25.35;16.42;;;;;;;2.57;63.90;92972.56;5112823;28;20011;-47
2022/03/30 00:25:43;;;;;;;29.92;16.85;;;;;;;2.43;65.01;92976.38;5112807;28;20492;-50
2022/03/30 00:28:09;;;;;;;25.33;14.95;;;;;;;2.60;64.09;92974.28;5112740;28;20492;-46
2022/03/30 00:30:35;;;;;;;24.35;15.82;;;;;;;2.53;63.71;92956.50;5112737;28;20377;-46
2022/03/30 00:33:00;;;;;;;29.35;15.73;;;;;;;2.66;64.03;92974.97;5112556;28;20031;-49
2022/03/30 00:35:26;;;;;;;22.92;14.43;;;;;;;2.64;63.11;92978.19;5112612;28;20489;-45
2022/03/30 00:37:51;;;;;;;20.75;11.80;;;;;;;2.49;63.21;92972.38;5112559;28;20083;-47
2022/03/30 00:40:17;;;;;;;27.17;14.48;;;;;;;2.58;63.61;92974.78;5112481;28;20508;-44
2022/03/30 00:42:43;;;;;;;22.42;13.02;;;;;;;2.53;63.18;92978.31;5112124;28;20020;-46
2022/03/30 00:45:13;;;;;;;23.30;14.80;;;;;;;2.10;65.17;92983.56;5112181;28;20045;-44
2022/03/30 00:47:38;;;;;;;21.10;12.25;;;;;;;2.11;65.20;92981.56;5112330;28;20020;-47
2022/03/30 00:50:09;;;;;;;24.25;13.93;;;;;;;1.91;65.83;92979.22;5110974;28;20496;-44
2022/03/30 00:52:35;;;;;;;20.75;13.52;;;;;;;1.81;66.11;92965.19;5091768;28;20027;-47
2022/03/30 00:55:01;;;;;;;25.83;14.85;;;;;;;1.97;65.74;92977.22;5091463;28;20020;-46
2022/03/30 00:57:28;;;;;;;24.23;12.50;;;;;;;2.04;65.50;92982.13;5092626;28;20020;-46
2022/03/30 00:59:56;;;;;;;27.38;14.02;;;;;;;2.01;64.80;92969.53;5111849;28;20047;-45
2022/03/30 01:02:23;;;;;;;22.92;13.93;;;;;;;2.01;66.13;92973.00;5111853;28;20072;-46
2022/03/30 01:04:49;;;;;;;24.48;13.48;;;;;;;2.02;65.42;92962.81;5111715;28;20027;-42
2022/03/30 01:07:14;;;;;;;22.30;13.95;;;;;;;1.92;65.60;92962.41;5111925;28;20032;-45
2022/03/30 01:09:40;;;;;;;19.77;13.10;;;;;;;1.93;65.78;92968.56;5111933;28;20386;-46
2022/03/30 01:12:07;;;;;;;25.90;12.98;;;;;;;1.30;66.62;92925.88;5111808;28;20500;-43
2022/03/30 01:14:33;;;;;;;24.75;13.52;;;;;;;1.31;66.93;92932.06;5111534;28;20027;-46
2022/03/30 01:16:59;;;;;;;21.50;12.45;;;;;;;1.65;66.56;92957.09;5110321;28;20024;-53
2022/03/30 01:19:29;;;;;;;17.25;10.93;;;;;;;1.87;66.02;92963.19;5111699;28;20065;-51
2022/03/30 01:21:55;;;;;;;16.52;11.77;;;;;;;1.80;65.25;92966.44;5111788;28;20077;-53
2022/03/30 01:24:20;;;;;;;20.27;12.02;;;;;;;1.86;66.14;92969.13;5111300;28;20713;-44
2022/03/30 01:26:46;;;;;;;16.65;11.43;;;;;;;1.73;66.02;92968.97;5111347;27;20110;-50
2022/03/30 01:34:41;;;;;;;17.35;11.82;;;;;;;1.42;67.27;92961.94;5111509;28;20031;-48
2022/03/30 01:37:08;;;;;;;22.85;13.35;;;;;;;1.49;67.07;92961.41;5111173;27;20023;-47
2022/03/30 01:39:33;;;;;;;19.92;13.07;;;;;;;1.44;67.23;92956.72;5111369;28;20096;-44
2022/03/30 01:41:59;;;;;;;17.77;11.82;;;;;;;1.41;66.66;92957.72;5111057;28;20102;-47
2022/03/30 01:44:24;;;;;;;23.20;14.10;;;;;;;1.57;67.39;92956.16;5111332;28;20020;-47
2022/03/30 01:46:51;;;;;;;29.10;16.25;;;;;;;1.75;67.04;92961.78;5105571;28;20119;-46
2022/03/30 01:49:21;;;;;;;41.67;18.25;;;;;;;1.66;65.91;92950.44;5090561;28;20528;-48
2022/03/30 01:51:50;;;;;;;29.42;16.08;;;;;;;1.65;65.91;92929.91;5090897;28;20020;-44
2022/03/30 01:54:17;;;;;;;22.55;14.38;;;;;;;1.59;65.96;92956.41;5090650;28;20020;-46
2022/03/30 01:56:42;;;;;;;23.83;13.85;;;;;;;1.47;67.50;92950.31;5090499;28;20417;-46
2022/03/30 01:59:07;;;;;;;18.90;12.55;;;;;;;1.50;66.12;92950.03;5105484;28;20022;-46
2022/03/30 02:01:33;;;;;;;18.83;11.65;;;;;;;1.46;65.67;92941.41;5110562;28;20047;-43
2022/03/30 02:04:00;;;;;;;20.52;11.93;;;;;;;1.60;65.46;92968.78;5111117;28;20016;-44
2022/03/30 02:06:26;;;;;;;15.50;11.43;;;;;;;1.52;65.87;92965.84;5110732;28;20047;-44
2022/03/30 02:08:51;;;;;;;23.77;12.50;;;;;;;1.30;67.13;92963.97;5111042;28;20047;-46
2022/03/30 02:11:16;;;;;;;17.15;12.20;;;;;;;1.48;66.45;92963.38;5110865;28;20509;-44
2022/03/30 02:13:42;;;;;;;24.15;13.15;;;;;;;1.43;66.19;92958.72;5110908;28;20027;-45
2022/03/30 02:16:07;;;;;;;18.67;11.88;;;;;;;1.40;66.71;92958.97;5110179;28;20016;-43
2022/03/30 02:18:34;;;;;;;22.63;13.60;;;;;;;1.39;66.62;92971.84;5110844;28;20023;-43
2022/03/30 02:21:00;;;;;;;22.23;14.40;;;;;;;1.39;66.58;92963.69;5110587;28;20019;-44
2022/03/30 02:23:26;;;;;;;38.40;19.80;;;;;;;1.45;67.03;92958.22;5110517;28;20072;-43
2022/03/30 02:25:51;;;;;;;34.08;19.25;;;;;;;1.14;66.98;92958.59;5110800;28;20027;-45
2022/03/30 02:28:17;;;;;;;23.33;15.32;;;;;;;1.25;67.66;92961.28;5110827;28;20016;-45
2022/03/30 02:30:42;;;;;;;24.10;15.48;;;;;;;1.28;66.99;92969.16;5110733;28;20098;-45
2022/03/30 02:33:08;;;;;;;37.17;24.48;;;;;;;1.36;66.64;92969.38;5110699;28;20186;-44
2022/03/30 02:35:33;;;;;;;27.20;16.70;;;;;;;1.44;65.59;92965.63;5110374;28;20504;-43
2022/03/30 02:37:59;;;;;;;24.48;13.85;;;;;;;1.45;65.18;92966.38;5110417;28;20028;-44
2022/03/30 02:40:25;;;;;;;20.75;13.20;;;;;;;1.35;65.05;92957.75;5110386;28;20512;-47
2022/03/30 02:42:50;;;;;;;24.05;14.13;;;;;;;1.38;65.87;92969.63;5107049;28;20023;-46
2022/03/30 02:45:16;;;;;;;23.25;13.35;;;;;;;1.21;66.10;92956.06;5090047;28;20028;-43
2022/03/30 02:50:25;;;;;;;23.73;15.82;;;;;;;1.30;65.94;92965.97;5090061;28;20055;-45
2022/03/30 02:52:51;;;;;;;24.58;16.15;;;;;;;1.32;65.91;92961.47;5090090;28;20056;-44
2022/03/30 02:55:16;;;;;;;30.40;16.75;;;;;;;1.09;66.46;92967.50;5089886;28;20035;-43
2022/03/30 02:57:41;;;;;;;25.67;15.85;;;;;;;1.13;65.77;92971.44;5092784;28;20072;-46
2022/03/30 03:00:07;;;;;;;18.45;13.93;;;;;;;1.13;65.99;92968.72;5110037;28;20117;-43
2022/03/30 03:02:34;;;;;;;24.00;15.15;;;;;;;1.25;65.78;92964.72;5110440;28;20397;-44
2022/03/30 03:05:00;;;;;;;28.65;16.95;;;;;;;1.39;65.68;92962.94;5110174;28;20059;-43
2022/03/30 03:07:26;;;;;;;24.15;14.88;;;;;;;1.29;65.88;92962.50;5110430;28;20160;-45
2022/03/30 03:09:52;;;;;;;25.30;14.25;;;;;;;1.15;66.19;92960.09;5110505;28;20099;-44
2022/03/30 03:12:18;;;;;;;23.70;12.77;;;;;;;1.02;65.77;92970.75;5110378;28;20058;-46
2022/03/30 03:14:43;;;;;;;17.23;11.05;;;;;;;0.99;66.18;92969.03;5110117;28;20389;-47
2022/03/30 03:17:09;;;;;;;30.27;16.60;;;;;;;0.96;66.37;92970.75;5110055;28;20030;-47
2022/03/30 03:19:34;;;;;;;36.17;18.52;;;;;;;0.89;66.61;92967.81;5109999;28;20019;-44
2022/03/30 03:21:59;;;;;;;52.78;28.50;;;;;;;0.98;66.80;92962.84;5110324;28;20090;-42
2022/03/30 03:24:25;;;;;;;59.75;30.55;;;;;;;0.84;67.02;92963.88;5110248;28;20500;-42
2022/03/30 03:26:51;;;;;;;33.75;20.30;;;;;;;0.78;67.52;92961.16;5110902;28;20031;-42
2022/03/30 03:29:16;;;;;;;33.80;18.17;;;;;;;0.77;67.43;92953.50;5113895;28;20028;-44
2022/03/30 03:31:42;;;;;;;39.75;20.52;;;;;;;0.61;67.53;92957.00;5113736;28;20397;-44
2022/03/30 03:34:08;;;;;;;33.80;17.98;;;;;;;0.30;68.64;92958.03;5113898;28;20046;-44
2022/03/30 03:36:34;;;;;;;30.95;18.75;;;;;;;0.48;69.15;92956.75;5113702;28;20059;-43
2022/03/30 03:39:00;;;;;;;28.92;17.98;;;;;;;0.54;68.41;92962.94;5110742;28;20023;-44
2022/03/30 03:41:26;;;;;;;29.33;17.27;;;;;;;0.71;67.78;92966.38;5093222;28;20028;-45
2022/03/30 03:43:51;;;;;;;31.20;18.67;;;;;;;0.74;68.10;92968.81;5093192;28;20021;-44
2022/03/30 03:46:17;;;;;;;37.65;18.92;;;;;;;0.77;67.53;92970.56;5092930;28;20024;-44
2022/03/30 03:48:42;;;;;;;32.90;18.27;;;;;;;0.64;67.68;92964.91;5092828;28;20024;-45
2022/03/30 03:51:08;;;;;;;33.90;16.33;;;;;;;0.51;67.62;92955.78;5093100;28;20063;-44
2022/03/30 03:53:35;;;;;;;37.15;20.83;;;;;;;0.54;68.20;92968.38;5093004;28;20420;-43
2022/03/30 03:56:04;;;;;;;31.35;18.05;;;;;;;0.47;68.06;92971.59;5092728;28;20024;-44
2022/03/30 03:58:29;;;;;;;29.17;19.67;;;;;;;0.31;68.85;92966.91;5092607;28;20023;-44
2022/03/30 04:00:55;;;;;;;32.97;19.30;;;;;;;0.48;69.04;92973.81;5092441;28;20123;-45
2022/03/30 04:03:21;;;;;;;36.88;18.20;;;;;;;0.29;68.62;92975.53;5092849;28;20016;-44
2022/03/30 04:05:46;;;;;;;40.95;20.75;;;;;;;0.07;69.40;92978.25;5092761;28;20062;-46
2022/03/30 04:08:12;;;;;;;37.58;19.65;;;;;;;0.29;69.39;92977.50;5092763;28;20485;-44
2022/03/30 04:10:38;;;;;;;32.80;19.88;;;;;;;0.29;68.60;92980.22;5092505;28;20050;-45
2022/03/30 04:13:07;;;;;;;46.25;22.73;;;;;;;0.13;69.23;92978.25;5092284;28;20505;-46
2022/03/30 04:15:34;;;;;;;37.55;22.45;;;;;;;0.23;68.56;92976.78;5092628;28;20024;-47
2022/03/30 04:18:00;;;;;;;44.72;24.88;;;;;;;0.21;68.62;92971.84;5092287;28;20497;-47
2022/03/30 04:20:26;;;;;;;54.38;29.50;;;;;;;0.17;68.60;92974.06;5092548;28;20034;-48
2022/03/30 04:22:51;;;;;;;37.03;21.73;;;;;;;0.06;68.95;92971.34;5092471;28;20490;-48
2022/03/30 04:25:17;;;;;;;49.60;28.95;;;;;;;0.16;68.46;92972.59;5092385;28;20505;-47
2022/03/30 04:27:50;;;;;;;86.45;46.05;;;;;;;0.13;68.66;92978.25;5092098;28;20046;-48
2022/03/30 04:30:17;;;;;;;61.33;34.80;;;;;;;0.21;68.77;92965.69;5091960;28;20016;-48
2022/03/30 04:32:44;;;;;;;61.55;32.55;;;;;;;0.29;68.69;92963.94;5092213;28;20441;-46
2022/03/30 04:35:11;;;;;;;66.20;32.38;;;;;;;0.34;69.12;92972.09;5093762;28;20489;-50
2022/03/30 04:37:37;;;;;;;85.63;38.58;;;;;;;0.56;68.36;92966.63;5112154;28;20028;-46
2022/03/30 04:40:03;;;;;;;129.30;55.78;;;;;;;0.59;66.85;92970.31;5112362;28;20024;-45
2022/03/30 04:42:28;;;;;;;169.18;69.28;;;;;;;0.38;67.00;92977.28;5112469;28;20085;-44
2022/03/30 04:44:54;;;;;;;89.22;39.38;;;;;;;0.44;67.54;92973.31;5112138;28;20031;-45
2022/03/30 04:47:19;;;;;;;74.05;35.22;;;;;;;0.52;68.04;92971.56;5112424;28;20026;-43
2022/03/30 04:49:45;;;;;;;62.25;31.23;;;;;;;0.62;67.43;92974.78;5112340;28;20019;-44
2022/03/30 04:52:10;;;;;;;43.03;23.33;;;;;;;0.42;67.59;92972.31;5112063;28;20027;-44
2022/03/30 04:54:36;;;;;;;31.42;19.60;;;;;;;-0.03;69.07;92939.03;5111928;28;20031;-46
2022/03/30 04:57:02;;;;;;;33.45;19.98;;;;;;;0.39;68.77;92960.47;5112255;28;20075;-42
2022/03/30 04:59:28;;;;;;;37.45;21.10;;;;;;;0.54;69.31;92971.09;5111628;28;20073;-49
2022/03/30 05:01:53;;;;;;;80.28;33.15;;;;;;;0.79;68.47;92978.22;5112151;28;20076;-45
2022/03/30 05:04:19;;;;;;;52.72;29.90;;;;;;;0.99;67.18;92975.19;5112104;27;20090;-45
2022/03/30 05:06:44;;;;;;;59.22;32.70;;;;;;;0.70;66.82;92929.56;5111678;28;20024;-46
2022/03/30 05:09:11;;;;;;;98.53;41.47;;;;;;;1.29;65.32;92969.91;5111714;28;20031;-43
2022/03/30 05:11:37;;;;;;;82.05;41.47;;;;;;;1.18;65.44;92940.03;5111479;28;20114;-42
2022/03/30 05:14:02;;;;;;;81.85;37.28;;;;;;;1.48;65.60;92960.66;5111546;28;20102;-45
2022/03/30 05:16:28;;;;;;;182.35;43.90;;;;;;;1.36;65.42;92967.41;5111563;28;20020;-45
2022/03/30 05:18:53;;;;;;;80.95;39.97;;;;;;;1.69;65.34;92963.03;5111724;28;20019;-46
2022/03/30 05:21:19;;;;;;;59.03;32.30;;;;;;;1.86;66.02;92966.41;5111412;28;20077;-45
2022/03/30 05:23:44;;;;;;;95.65;49.35;;;;;;;2.10;64.47;92959.06;5111603;28;20016;-45
2022/03/30 05:26:10;;;;;;;116.78;52.13;;;;;;;2.32;63.83;92962.88;5111385;28;20035;-45
2022/03/30 05:28:38;;;;;;;103.25;53.97;;;;;;;2.36;63.37;92944.97;5111596;28;20027;-46
2022/03/30 05:31:05;;;;;;;97.53;47.23;;;;;;;2.59;63.71;92953.72;5111560;28;20028;-44
2022/03/30 05:33:30;;;;;;;91.47;45.38;;;;;;;2.66;63.63;92970.25;5091533;28;20081;-46
2022/03/30 05:35:56;;;;;;;86.75;43.70;;;;;;;2.67;64.09;92968.25;5091149;28;20405;-43
2022/03/30 05:38:21;;;;;;;89.95;45.67;;;;;;;2.96;64.23;92972.94;5090960;28;20603;-43
2022/03/30 05:40:47;;;;;;;72.35;37.95;;;;;;;3.06;64.26;92974.06;5090854;28;20485;-46
2022/03/30 05:43:13;;;;;;;68.40;36.47;;;;;;;2.95;65.30;92971.44;5090705;28;20016;-45
2022/03/30 05:45:39;;;;;;;81.78;45.00;;;;;;;2.99;66.42;92971.91;5090694;28;20505;-47
2022/03/30 05:48:04;;;;;;;59.55;33.13;;;;;;;3.27;66.64;92958.72;5090848;28;20016;-47
2022/03/30 05:50:30;;;;;;;57.88;31.00;;;;;;;4.07;63.97;92960.69;5089850;28;20023;-44
2022/03/30 05:52:56;;;;;;;106.07;41.88;;;;;;;4.74;62.24;92957.66;5090524;28;20030;-47
2022/03/30 05:55:21;;;;;;;154.75;51.70;;;;;;;5.12;60.74;92959.69;5090753;28;20089;-46
2022/03/30 05:57:47;;;;;;;70.50;31.95;;;;;;;5.60;59.78;92958.53;5094530;28;20499;-45
2022/03/30 06:00:13;;;;;;;130.90;67.10;;;;;;;6.09;58.48;92961.50;5110623;28;20535;-44
2022/03/30 06:02:39;;;;;;;75.88;40.38;;;;;;;6.35;57.52;92949.72;5110760;28;20026;-47
2022/03/30 06:05:06;;;;;;;88.18;33.70;;;;;;;6.67;57.47;92950.22;5111107;28;20028;-45
2022/03/30 06:07:31;;;;;;;47.75;30.08;;;;;;;6.93;56.54;92946.59;5111014;28;20400;-46
2022/03/30 06:09:57;;;;;;;66.55;29.05;;;;;;;7.50;55.72;92945.31;5111012;28;20020;-47
2022/03/30 06:12:24;;;;;;;68.03;30.40;;;;;;;8.39;53.79;92944.25;5110481;28;20016;-46
2022/03/30 06:14:51;;;;;;;47.67;28.77;;;;;;;9.62;50.83;92946.44;5110696;28;20023;-46
2022/03/30 06:17:18;;;;;;;91.15;41.13;;;;;;;10.90;48.07;92936.88;5110869;28;20083;-47
2022/03/30 06:19:45;;;;;;;101.93;58.00;;;;;;;11.63;46.12;92947.13;5110817;28;20089;-49
2022/03/30 06:22:11;;;;;;;114.88;73.50;;;;;;;12.75;44.05;92943.63;5109430;28;20045;-48
2022/03/30 06:24:38;;;;;;;74.07;42.55;;;;;;;13.89;41.42;92959.94;5110791;28;20047;-47
2022/03/30 06:27:04;;;;;;;50.42;27.52;;;;;;;14.16;41.27;92957.06;5109237;28;20027;-47
2022/03/30 06:29:31;;;;;;;74.35;28.80;;;;;;;14.24;41.13;92965.97;5093041;28;20024;-45
2022/03/30 06:31:57;;;;;;;60.88;34.80;;;;;;;14.62;40.51;92965.25;5090309;28;20032;-46
2022/03/30 06:34:22;;;;;;;100.40;41.90;;;;;;;14.82;39.99;92961.84;5090458;28;20459;-48
2022/03/30 06:36:48;;;;;;;68.82;35.67;;;;;;;14.81;40.26;92949.25;5090375;28;20504;-45
2022/03/30 06:39:14;;;;;;;97.80;34.88;;;;;;;15.43;39.78;92949.34;5090319;28;20405;-46
2022/03/30 06:41:40;;;;;;;65.75;33.67;;;;;;;16.02;39.05;92952.00;5090401;28;20016;-45
2022/03/30 06:44:05;;;;;;;46.58;23.90;;;;;;;16.77;37.66;92942.88;5090281;28;20024;-45
2022/03/30 06:46:33;;;;;;;25.02;16.08;;;;;;;16.80;37.40;92939.63;5090096;28;20023;-46
2022/03/30 06:49:00;;;;;;;24.37;15.80;;;;;;;17.22;36.33;92935.94;5090100;28;20512;-47
2022/03/30 06:51:26;;;;;;;21.45;13.85;;;;;;;17.76;36.03;92932.97;5089905;28;20023;-46
2022/03/30 06:53:51;;;;;;;20.20;13.55;;;;;;;17.87;34.91;92935.72;5090304;28;20024;-47
2022/03/30 06:56:16;;;;;;;26.45;13.95;;;;;;;17.83;35.12;92949.47;5090223;28;20035;-49
2022/03/30 06:58:42;;;;;;;23.30;13.55;;;;;;;18.14;34.57;92951.97;5089846;28;20680;-45
2022/03/30 07:01:08;;;;;;;51.20;33.50;;;;;;;18.44;33.73;92950.19;5091243;28;20115;-45
2022/03/30 07:03:33;;;;;;;26.83;16.08;;;;;;;18.55;33.82;92955.78;5093739;28;20027;-48
2022/03/30 07:06:01;;;;;;;30.45;17.63;;;;;;;19.05;33.18;92955.06;5093739;28;20073;-47
2022/03/30 07:11:10;;;;;;;154.27;37.78;;;;;;;20.26;31.39;92967.84;5094035;28;20027;-47
2022/03/30 07:13:36;;;;;;;26.83;18.25;;;;;;;21.27;30.39;92966.44;5093391;28;20024;-47
2022/03/30 07:16:02;;;;;;;26.80;18.15;;;;;;;22.20;28.96;92958.03;5093807;28;20023;-47
2022/03/30 07:18:27;;;;;;;36.88;19.90;;;;;;;22.50;28.01;92953.00;5093409;28;20451;-47
2022/03/30 07:20:53;;;;;;;228.95;28.10;;;;;;;23.20;27.31;92952.34;5093627;28;20020;-49
2022/03/30 07:23:20;;;;;;;111.20;24.17;;;;;;;23.28;27.24;92953.41;5093594;28;20103;-49
2022/03/30 07:25:46;;;;;;;36.65;27.42;;;;;;;23.12;26.83;92952.78;5110646;28;20020;-47
2022/03/30 07:28:11;;;;;;;148.93;29.67;;;;;;;23.08;27.21;92951.88;5113625;28;20020;-48
2022/03/30 07:30:37;;;;;;;61.72;17.33;;;;;;;23.02;27.09;92943.22;5113706;28;20016;-47
2022/03/30 07:33:03;;;;;;;28.73;15.68;;;;;;;23.22;25.75;92949.63;5113675;28;20425;-51
2022/03/30 07:35:29;;;;;;;25.88;10.65;;;;;;;23.30;25.64;92956.28;5113441;28;20066;-48
2022/03/30 07:37:55;;;;;;;33.35;11.52;;;;;;;23.48;25.31;92958.41;5113383;27;20114;-47
2022/03/30 07:40:22;;;;;;;17.90;9.60;;;;;;;23.67;25.13;92961.25;5113759;28;20028;-47
2022/03/30 07:42:49;;;;;;;64.57;12.45;;;;;;;24.89;23.71;92964.25;5113397;28;20026;-48
2022/03/30 07:45:16;;;;;;;20.25;10.18;;;;;;;24.33;23.47;92960.19;5113229;28;20108;-49
2022/03/30 07:47:42;;;;;;;21.25;9.15;;;;;;;25.45;22.46;92959.72;5113304;28;20077;-48
2022/03/30 07:50:08;;;;;;;46.65;10.63;;;;;;;25.94;21.66;92953.44;5113178;28;20030;-48
2022/03/30 07:52:34;;;;;;;30.15;11.55;;;;;;;26.10;21.03;92954.66;5112995;28;20106;-50
2022/03/30 07:55:00;;;;;;;227.80;20.58;;;;;;;26.32;22.01;92963.06;5113085;28;20051;-47
2022/03/30 07:57:28;;;;;;;65.70;11.32;;;;;;;26.21;21.48;92962.06;5113007;28;20069;-48
2022/03/30 07:59:58;;;;;;;22.35;9.55;;;;;;;25.77;22.00;92957.19;5113095;28;20039;-48
2022/03/30 08:02:25;;;;;;;16.30;8.75;;;;;;;26.23;22.06;92962.09;5112997;28;20023;-46
2022/03/30 08:04:51;;;;;;;16.25;9.80;;;;;;;26.36;21.31;92965.28;5112923;28;20020;-50
2022/03/30 08:07:18;;;;;;;87.60;17.88;;;;;;;26.57;21.30;92944.63;5112755;28;20028;-49
2022/03/30 08:09:44;;;;;;;29.95;16.85;;;;;;;26.98;20.98;92956.34;5112804;28;20019;-49
2022/03/30 08:12:14;;;;;;;29.75;12.98;;;;;;;27.19;20.63;92951.91;5112055;28;20024;-48
2022/03/30 08:14:41;;;;;;;194.77;131.25;;;;;;;27.38;19.91;92953.81;5112672;28;20030;-50
2022/03/30 08:17:06;;;;;;;21.13;9.20;;;;;;;28.14;18.67;92943.50;5112951;28;20433;-47
2022/03/30 08:19:31;;;;;;;25.45;10.10;;;;;;;28.25;18.84;92935.91;5112831;28;20062;-47
2022/03/30 08:24:46;;;;;;;22.30;9.70;;;;;;;28.60;17.70;92940.88;5112726;28;20104;-47
2022/03/30 08:27:15;;;;;;;112.13;70.55;;;;;;;29.43;18.10;92936.69;5113055;28;20042;-51
2022/03/30 08:29:40;;;;;;;35.50;17.25;;;;;;;30.09;17.36;92928.41;5112755;28;20107;-49
2022/03/30 08:32:06;;;;;;;16.92;8.38;;;;;;;30.25;16.37;92929.34;5112513;28;20492;-49
2022/03/30 08:34:32;;;;;;;14.93;7.53;;;;;;;30.42;16.61;92935.97;5112598;28;20077;-47
2022/03/30 08:36:58;;;;;;;23.02;9.10;;;;;;;30.21;16.28;92931.41;5110981;28;20024;-47
2022/03/30 08:39:24;;;;;;;47.80;8.65;;;;;;;30.19;16.79;92928.53;5112503;28;20092;-49
2022/03/30 08:41:49;;;;;;;28.00;7.45;;;;;;;29.93;16.96;92926.06;5112501;28;20480;-47
2022/03/30 08:44:17;;;;;;;16.65;6.68;;;;;;;30.02;16.72;92927.59;5112082;28;20413;-49
2022/03/30 08:46:45;;;;;;;112.90;11.30;;;;;;;27.86;17.26;92923.00;5112163;27;20548;-48
2022/03/30 08:49:10;;;;;;;20.60;7.13;;;;;;;29.64;16.56;92924.19;5112487;28;20403;-47
2022/03/30 08:51:39;;;;;;;16.10;7.03;;;;;;;29.97;15.80;92915.44;5111942;28;20114;-47
2022/03/30 08:54:05;;;;;;;40.70;15.25;;;;;;;29.20;16.01;92913.56;5111964;28;20088;-48
2022/03/30 08:56:31;;;;;;;42.17;8.60;;;;;;;28.86;16.79;92912.25;5111958;28;20176;-50
2022/03/30 08:59:04;;;;;;;20.17;7.85;;;;;;;28.49;16.56;92908.00;5111491;27;20059;-46
2022/03/30 09:01:41;;;;;;;18.83;6.60;;;;;;;28.28;16.79;92906.88;5111684;28;20100;-47
2022/03/30 09:04:11;;;;;;;19.10;7.83;;;;;;;28.05;17.04;92904.97;5112136;28;20031;-49
2022/03/30 09:06:41;;;;;;;15.30;5.95;;;;;;;26.50;17.88;92909.78;5111666;28;20504;-48
2022/03/30 09:09:07;;;;;;;20.17;5.97;;;;;;;25.96;19.03;92908.25;5111989;28;20116;-49
2022/03/30 09:11:41;;;;;;;16.00;6.05;;;;;;;25.84;18.92;92907.88;5111881;28;20043;-48
2022/03/30 09:14:11;;;;;;;33.47;6.85;;;;;;;26.53;18.28;92914.06;5111845;28;20028;-47
2022/03/30 09:16:45;;;;;;;20.00;5.82;;;;;;;25.60;18.66;92905.06;5111390;28;20081;-48
2022/03/30 09:19:15;;;;;;;12.63;5.32;;;;;;;25.19;18.55;92905.19;5111535;28;20076;-49
2022/03/30 09:21:42;;;;;;;12.00;5.85;;;;;;;24.91;19.77;92896.53;5111495;28;20026;-48
2022/03/30 09:24:07;;;;;;;14.43;5.07;;;;;;;25.63;18.28;92897.38;5110456;28;20557;-49
2022/03/30 09:26:34;;;;;;;11.32;5.53;;;;;;;26.97;17.20;92880.53;5109418;28;20019;-47
2022/03/30 09:29:00;;;;;;;13.50;5.15;;;;;;;27.21;18.32;92869.03;5110420;28;20019;-47
2022/03/30 09:31:30;;;;;;;12.57;5.60;;;;;;;28.19;17.05;92864.81;5111408;28;20023;-48
2022/03/30 09:33:59;;;;;;;11.07;5.75;;;;;;;28.06;17.11;92858.19;5111544;28;20428;-48
2022/03/30 09:36:29;;;;;;;35.50;7.22;;;;;;;27.79;17.82;92876.03;5109869;28;20519;-50
2022/03/30 09:38:55;;;;;;;14.30;5.90;;;;;;;27.86;17.98;92871.94;5111103;28;20031;-49
2022/03/30 09:41:20;;;;;;;19.33;6.90;;;;;;;27.68;18.04;92855.25;5111116;28;20080;-49
2022/03/30 09:43:46;;;;;;;16.75;7.18;;;;;;;27.64;18.15;92865.78;5110703;27;20077;-47
2022/03/30 09:46:12;;;;;;;17.02;7.55;;;;;;;27.25;17.93;92854.97;5111066;28;20072;-49
2022/03/30 09:48:50;;;;;;;9.05;6.35;;;;;;;26.82;18.51;92851.16;5110843;28;20080;-49
2022/03/30 09:51:17;;;;;;;14.55;6.15;;;;;;;25.34;19.25;92848.44;5110738;28;20020;-47
2022/03/30 09:53:43;;;;;;;10.32;5.97;;;;;;;25.37;19.57;92843.59;5111150;28;20034;-49
2022/03/30 09:56:16;;;;;;;12.30;5.93;;;;;;;25.94;20.21;92838.19;5111103;28;20381;-47
2022/03/30 09:58:43;;;;;;;18.50;6.70;;;;;;;26.81;19.43;92840.50;5110837;28;20043;-47
2022/03/30 10:01:11;;;;;;;12.75;6.88;;;;;;;26.47;18.44;92843.16;5110565;28;20047;-48
2022/03/30 10:03:54;;;;;;;16.48;6.15;;;;;;;26.78;17.43;92827.66;5110777;28;20531;-49
2022/03/30 10:06:29;;;;;;;22.15;6.72;;;;;;;27.59;17.89;92830.94;5110565;28;20088;-46
2022/03/30 10:08:56;;;;;;;49.85;9.25;;;;;;;28.25;16.67;92819.50;5109450;28;20035;-48
2022/03/30 10:11:23;;;;;;;114.47;10.95;;;;;;;28.73;16.49;92819.66;5110675;28;20027;-51
2022/03/30 10:13:51;;;;;;;17.70;6.47;;;;;;;27.83;15.80;92813.69;5110455;28;20038;-49
2022/03/30 10:16:20;;;;;;;15.00;6.25;;;;;;;27.82;17.37;92812.28;5110923;28;20035;-47
2022/03/30 10:18:48;;;;;;;18.30;6.13;;;;;;;27.87;17.74;92807.41;5110936;28;20024;-47
2022/03/30 10:21:49;;;;;;;12.82;6.68;;;;;;;27.40;17.95;92803.59;5110930;28;20188;-48
2022/03/30 10:24:35;;;;;;;13.05;6.07;;;;;;;27.25;18.12;92792.59;5110108;28;20048;-47
2022/03/30 10:27:22;;;;;;;19.38;6.55;;;;;;;27.33;17.26;92784.28;5105021;28;20031;-46
2022/03/30 10:29:52;;;;;;;16.75;6.07;;;;;;;27.50;17.01;92771.91;5090310;28;20055;-49
2022/03/30 10:32:20;;;;;;;48.92;8.10;;;;;;;27.49;18.12;92776.13;5105531;28;20027;-46
2022/03/30 10:34:58;;;;;;;15.82;6.47;;;;;;;27.12;16.47;92771.06;5091013;28;20597;-48
2022/03/30 10:37:30;;;;;;;10.30;5.80;;;;;;;27.11;17.88;92763.97;5093976;28;20036;-47
2022/03/30 10:40:06;;;;;;;18.88;7.22;;;;;;;26.48;18.70;92762.50;5094592;28;20039;-47
2022/03/30 10:42:47;;;;;;;37.83;6.63;;;;;;;26.75;18.42;92763.84;5094473;28;20099;-50
2022/03/30 10:45:28;;;;;;;16.77;6.88;;;;;;;26.85;17.84;92761.28;5094171;28;20097;-49
2022/03/30 10:48:24;;;;;;;17.02;6.80;;;;;;;26.40;17.90;92761.59;5094323;28;20098;-48
2022/03/30 10:50:55;;;;;;;22.52;7.40;;;;;;;26.53;17.95;92744.19;5094027;28;20027;-49
2022/03/30 10:53:30;;;;;;;15.65;5.65;;;;;;;26.74;17.31;92748.28;5094103;28;20024;-46
2022/03/30 10:56:15;;;;;;;18.70;6.18;;;;;;;26.25;18.84;92735.75;5093887;28;20028;-51
2022/03/30 10:58:49;;;;;;;11.65;6.75;;;;;;;26.23;18.37;92738.53;5104945;28;20031;-47
2022/03/30 11:01:29;;;;;;;13.18;6.50;;;;;;;26.51;18.78;92730.00;5113904;28;20109;-48
2022/03/30 11:04:05;;;;;;;10.88;6.22;;;;;;;26.91;17.08;92727.41;5114242;28;20501;-49
2022/03/30 11:06:38;;;;;;;11.82;5.95;;;;;;;26.62;17.71;92728.84;5114403;28;20098;-51
2022/03/30 11:09:12;;;;;;;16.17;6.05;;;;;;;26.46;18.80;92725.66;5114221;28;20041;-49
2022/03/30 11:11:44;;;;;;;28.63;7.80;;;;;;;26.98;17.91;92721.19;5113899;28;20031;-48
2022/03/30 11:14:28;;;;;;;11.75;5.45;;;;;;;26.53;17.76;92712.38;5114216;28;20103;-49
2022/03/30 11:17:02;;;;;;;15.38;6.93;;;;;;;26.46;17.82;92711.50;5114228;28;20094;-49
2022/03/30 11:19:46;;;;;;;20.58;8.88;;;;;;;26.37;17.83;92704.19;5113749;28;20030;-48
2022/03/30 11:22:21;;;;;;;57.20;8.88;;;;;;;25.79;18.06;92708.38;5114042;28;20475;-47
2022/03/30 11:25:18;;;;;;;11.32;6.57;;;;;;;25.11;18.79;92705.09;5113656;27;20042;-47
2022/03/30 11:27:45;;;;;;;29.95;7.50;;;;;;;24.87;19.79;92700.84;5113671;28;20500;-48
2022/03/30 11:30:13;;;;;;;18.00;6.75;;;;;;;25.03;19.20;92696.41;5112437;28;20110;-50
2022/03/30 11:32:44;;;;;;;15.43;5.85;;;;;;;25.35;19.03;92685.28;5113496;27;20567;-49
2022/03/30 11:35:12;;;;;;;9.82;6.18;;;;;;;25.79;19.27;92691.41;5113885;28;20428;-49
2022/03/30 11:37:41;;;;;;;13.05;5.90;;;;;;;25.78;19.24;92695.63;5113430;28;20020;-51
2022/03/30 11:40:18;;;;;;;11.60;6.05;;;;;;;26.49;18.64;92681.81;5113728;28;20047;-48